Burgin, KY (40310)

03:17 AM EDT del 31 Luglio 2016 (GMT -0400)
Berwick Drive | | Change Station

Alt. 980 ft 37.66 °N, 84.79 °W | Updated 2 minutes ago

Clear
Sereno
70.5 °F
Sembra 70.5 °F
N
0.0
Vento Variabile Vento da Sud
Gusts 8.0 mph

Oggi
Massima -- | Minima -- °F
--% Possibilità di precip.
Ieri
Massima -- | Minima -- °F
Precip. -- in
Pressione 30.02 in
Visibilità 5.0 miglia
Nuvole Sereno
Punto di rugiada 67 °F
Umidità 89%
Piovosità 0.00 in
Spessore del manto nevoso Non disponibile.
6:42 AM 8:48 PM
Luna calante, 8% visible
METAR KDVK 310655Z AUTO 00000KT 5SM BR CLR 21/21 A3002 RMK AO2
Pressione 30.02 in
Visibilità 5.0 miglia
Nuvole Sereno
Punto di rugiada 67 °F
Umidità 89%
Piovosità 0.00 in
Spessore del manto nevoso Non disponibile.
6:42 AM 8:48 PM
Luna calante, 8% visible
METAR KDVK 310655Z AUTO 00000KT 5SM BR CLR 21/21 A3002 RMK AO2

10-Day Weather Forecast

Almanac

Astronomia

Jul. 31, 2016 Alba Tramonto
Ora attuale
Crepuscolo civile
Crepuscolo nautico
Crepuscolo astronomico
Luna
Estensione della luce visibile
Lunghezza del giorno
Tomorrow will be .
, % of the Moon is Illuminated

Gli estremi di oggi

State Highs State Lows

Community

WunderPhotos

Upload Photos

1,928,768 foto caricate!

WunderBlog® & News

Nearby

Qualità dell'aria

  Qualità dell'aria Indice AQ Inquinante
Not available.

Profondità neve

Stazione Profondità Altitudine

Attività sismica

Città  Distanza Mag. Data & Ora
Minimo Magnitudo Mostrato è 2.5.

Temperature delle acque costiere

Località Temperatura

Stations

Stazioni meteo nelle vicinanze

Ubicazione della stazione Temp. Raffreddamento del vento Punto di rugiada Umidità Vento Precip. Alt. Aggiornato Tipo
                   

Watches & Warnings

There are currently no watches in effect.